WXM80 ListenWXM80 Stop

You find our weather info also at:

UK Metoffice

WeatherCloud

Weather Underground

Northeastern Weather Network

AWEKAS

Citizen Weather Observer Program (CWOP)

HAMweather, WeatherForYou, PWS Weather


Weather Underground History page Text

Daily Summary for February 27, 2018 Units:  Metric    English   Both
« Previous Day
Next Day »
Daily Weekly Monthly Yearly Custom
  High: Low: Average:
Temperature: 13.8 °C 0.2 °C 6.6 °C
Dew Point: 0.2 °C -3.6 °C -1.4 °C
Humidity: 85 % 33 % 60 %
Wind Speed: 14.5 km/h 0 km/h 4.3 km/h
Wind Gust: 24.1 km/h - -
Wind:- - WSW
Pressure: 1020.5 hPa 1013.8 hPa -
Precipitation: 0 mm    
Historical Graphs
 
 
Tabular Data for February 27, 2018
Time Temperature Dew Point Pressure Wind Wind Speed Wind Gust Humidity Rainfall Rate (Hourly)
00:03 2.7 °C -0.6 °C 1015.8 hPa WSW 1.8 km/h 3.7 km/h 79 % 0 mm
00:08 2.7 °C -0.6 °C 1015.8 hPa Calm     79 % 0 mm
00:13 2.6 °C -0.7 °C 1016.1 hPa Calm   1.9 km/h 79 % 0 mm
00:18 2.6 °C -0.7 °C 1016.1 hPa WSW 1.1 km/h 3.7 km/h 79 % 0 mm
00:23 2.4 °C -0.8 °C 1016.1 hPa WSW 0.5 km/h 1.9 km/h 79 % 0 mm
00:29 2.3 °C -0.9 °C 1016.1 hPa WSW 1.6 km/h 3.7 km/h 79 % 0 mm
00:34 2.3 °C -1 °C 1016.1 hPa WSW 2.4 km/h 4.8 km/h 79 % 0 mm
00:39 2.2 °C -1.1 °C 1016.1 hPa WSW 2.6 km/h 3.7 km/h 79 % 0 mm
00:44 2.1 °C -1.2 °C 1016.5 hPa WSW 1.6 km/h 3.7 km/h 79 % 0 mm
00:49 2.1 °C -1.2 °C 1016.5 hPa WSW 1.3 km/h 3.7 km/h 79 % 0 mm
00:54 1.9 °C -1.3 °C 1016.5 hPa WSW 3.1 km/h 5.6 km/h 79 % 0 mm
00:59 1.9 °C -1.6 °C 1016.5 hPa Calm     78 % 0 mm
01:04 1.9 °C -1.6 °C 1016.5 hPa WNW 4.5 km/h 9.3 km/h 78 % 0 mm
01:09 1.9 °C -1.7 °C 1016.5 hPa WNW 1 km/h 1.9 km/h 77 % 0 mm
01:14 1.9 °C -1.7 °C 1016.8 hPa Calm     77 % 0 mm
01:19 1.9 °C -1.8 °C 1016.8 hPa WNW 0.8 km/h 1.9 km/h 76 % 0 mm
01:24 1.9 °C -2 °C 1016.8 hPa WSW 2.4 km/h 5.6 km/h 75 % 0 mm
01:29 2 °C -1.9 °C 1017.2 hPa West 2.3 km/h 5.6 km/h 75 % 0 mm
01:34 2 °C -1.9 °C 1017.2 hPa Calm     75 % 0 mm
01:39 2.1 °C -1.9 °C 1017.2 hPa Calm     75 % 0 mm
01:44 2.1 °C -1.7 °C 1017.5 hPa West 2.7 km/h 3.7 km/h 76 % 0 mm
01:49 2 °C -1.8 °C 1017.5 hPa West 0.2 km/h 3.7 km/h 76 % 0 mm
01:54 1.9 °C -1.8 °C 1017.5 hPa West 0.5 km/h 1.9 km/h 76 % 0 mm
01:59 1.8 °C -2.1 °C 1017.5 hPa Calm   3.7 km/h 75 % 0 mm
02:05 1.8 °C -1.9 °C 1017.5 hPa West 1.1 km/h 5.6 km/h 76 % 0 mm
02:10 1.8 °C -1.8 °C 1017.5 hPa West 1.9 km/h 3.7 km/h 77 % 0 mm
02:15 1.7 °C -1.9 °C 1017.5 hPa Calm   1.9 km/h 77 % 0 mm
02:20 1.7 °C -1.9 °C 1017.5 hPa Calm     77 % 0 mm
02:25 1.6 °C -1.9 °C 1017.5 hPa Calm     78 % 0 mm
02:30 1.4 °C -2 °C 1017.5 hPa Calm     78 % 0 mm
02:35 1.4 °C -2.1 °C 1017.8 hPa West 0.2 km/h 1.6 km/h 78 % 0 mm
02:40 1.2 °C -2 °C 1017.8 hPa West 0.6 km/h 1.9 km/h 79 % 0 mm
02:45 1.1 °C -2.1 °C 1017.5 hPa West 2.3 km/h 3.7 km/h 79 % 0 mm
02:50 1 °C -2.1 °C 1017.5 hPa Calm     80 % 0 mm
02:55 0.9 °C -2.1 °C 1017.8 hPa Calm     80 % 0 mm
03:00 0.9 °C -2.2 °C 1017.8 hPa Calm     80 % 0 mm
03:05 0.8 °C -2.2 °C 1017.8 hPa Calm   1.9 km/h 80 % 0 mm
03:10 0.8 °C -2.3 °C 1017.8 hPa Calm     80 % 0 mm
03:15 0.7 °C -2.3 °C 1017.8 hPa Calm     80 % 0 mm
03:21 0.7 °C -2.4 °C 1017.8 hPa Calm     80 % 0 mm
03:26 0.6 °C -2.3 °C 1017.8 hPa Calm   1.6 km/h 81 % 0 mm
03:31 0.6 °C -2.3 °C 1017.8 hPa Calm     81 % 0 mm
03:36 0.4 °C -2.4 °C 1017.5 hPa West 0.2 km/h 3.7 km/h 81 % 0 mm
03:41 0.4 °C -2.5 °C 1017.8 hPa West 1.9 km/h 3.7 km/h 81 % 0 mm
03:46 0.3 °C -2.4 °C 1017.8 hPa West 2.1 km/h 4.8 km/h 82 % 0 mm
03:51 0.3 °C -2.4 °C 1017.8 hPa West 1.3 km/h 3.7 km/h 82 % 0 mm
03:56 0.2 °C -2.3 °C 1017.8 hPa West 0.8 km/h 3.2 km/h 83 % 0 mm
04:01 0.2 °C -2.4 °C 1017.8 hPa Calm     83 % 0 mm
04:06 0.2 °C -2.4 °C 1017.8 hPa Calm   1.9 km/h 83 % 0 mm
04:11 0.2 °C -2.3 °C 1017.8 hPa Calm   1.9 km/h 83 % 0 mm
04:16 0.2 °C -2.3 °C 1017.8 hPa West 0.6 km/h 3.7 km/h 83 % 0 mm
04:22 0.2 °C -2.5 °C 1017.8 hPa West 2.6 km/h 5.6 km/h 82 % 0 mm
04:27 0.2 °C -2.5 °C 1018.2 hPa West 2.3 km/h 3.7 km/h 82 % 0 mm
04:32 0.3 °C -2.4 °C 1017.8 hPa West 1.9 km/h 5.6 km/h 82 % 0 mm
04:37 0.3 °C -2.6 °C 1018.2 hPa West 2.7 km/h 3.7 km/h 81 % 0 mm
04:42 0.3 °C -2.6 °C 1018.2 hPa West 2.3 km/h 5.6 km/h 81 % 0 mm
04:47 0.3 °C -2.8 °C 1018.2 hPa West 1.8 km/h 5.6 km/h 80 % 0 mm
04:52 0.3 °C -2.8 °C 1018.2 hPa West 1.6 km/h 3.7 km/h 80 % 0 mm
04:57 0.3 °C -2.8 °C 1018.5 hPa West 3.1 km/h 5.6 km/h 80 % 0 mm
05:02 0.3 °C -2.8 °C 1018.5 hPa West 2.1 km/h 3.7 km/h 80 % 0 mm
05:07 0.3 °C -2.8 °C 1018.2 hPa WSW 2.6 km/h 5.6 km/h 80 % 0 mm
05:12 0.3 °C -2.8 °C 1018.2 hPa WSW 5.1 km/h 11.1 km/h 80 % 0 mm
05:17 0.3 °C -2.7 °C 1018.5 hPa WSW 4.2 km/h 6.4 km/h 80 % 0 mm
05:22 0.3 °C -2.9 °C 1018.5 hPa WSW 1.8 km/h 3.7 km/h 79 % 0 mm
05:27 0.4 °C -2.7 °C 1018.5 hPa WSW 3.2 km/h 5.6 km/h 80 % 0 mm
05:32 0.4 °C -2.7 °C 1018.5 hPa WSW 3.7 km/h 5.6 km/h 80 % 0 mm
05:37 0.4 °C -2.6 °C 1018.5 hPa WSW 3.7 km/h 7.4 km/h 80 % 0 mm
05:42 0.4 °C -2.8 °C 1018.5 hPa West 0.6 km/h 3.2 km/h 79 % 0 mm
05:47 0.5 °C -2.7 °C 1018.5 hPa West 3.7 km/h 5.6 km/h 79 % 0 mm
05:52 0.6 °C -2.7 °C 1018.5 hPa West 1.4 km/h 3.7 km/h 79 % 0 mm
05:57 0.7 °C -2.6 °C 1018.5 hPa SW 2.7 km/h 6.4 km/h 79 % 0 mm
06:02 0.7 °C -2.5 °C 1018.5 hPa WSW 2.1 km/h 5.6 km/h 79 % 0 mm
06:07 0.8 °C -2.3 °C 1018.8 hPa WSW 1.6 km/h 1.9 km/h 80 % 0 mm
06:12 0.8 °C -2.3 °C 1018.8 hPa WSW 1.8 km/h 3.2 km/h 80 % 0 mm
06:18 0.8 °C -2.3 °C 1018.8 hPa WSW 1.3 km/h 3.7 km/h 80 % 0 mm
06:23 0.8 °C -2.1 °C 1018.8 hPa SW 1 km/h 3.7 km/h 81 % 0 mm
06:28 0.8 °C -2.1 °C 1018.8 hPa SW 0.8 km/h 3.7 km/h 81 % 0 mm
06:33 0.8 °C -2.1 °C 1019.2 hPa Calm     81 % 0 mm
06:38 0.8 °C -1.9 °C 1019.2 hPa SW 1 km/h 4.8 km/h 82 % 0 mm
06:43 0.7 °C -2 °C 1019.2 hPa WSW 0.2 km/h 3.7 km/h 82 % 0 mm
06:48 0.7 °C -1.8 °C 1019.2 hPa Calm     83 % 0 mm
06:53 0.7 °C -1.8 °C 1019.2 hPa Calm   1.9 km/h 83 % 0 mm
06:58 0.8 °C -1.6 °C 1019.2 hPa WSW 1.8 km/h 3.7 km/h 84 % 0 mm
07:03 0.8 °C -1.6 °C 1019.5 hPa WSW 2.3 km/h 3.7 km/h 84 % 0 mm
07:08 0.9 °C -1.3 °C 1019.5 hPa WSW 0.6 km/h 3.7 km/h 85 % 0 mm
07:13 1.1 °C -1.1 °C 1019.5 hPa WSW 0.3 km/h 3.7 km/h 85 % 0 mm
07:18 1.3 °C -0.9 °C 1019.9 hPa WSW 1.6 km/h 3.2 km/h 85 % 0 mm
07:23 1.5 °C -0.7 °C 1019.9 hPa WSW 0.3 km/h 1.9 km/h 85 % 0 mm
07:28 1.7 °C -0.6 °C 1019.9 hPa Calm   1.6 km/h 85 % 0 mm
07:34 1.9 °C -0.5 °C 1019.9 hPa Calm   1.9 km/h 84 % 0 mm
07:39 2.2 °C -0.3 °C 1019.9 hPa WSW 1.3 km/h 3.7 km/h 84 % 0 mm
07:44 2.4 °C -0.2 °C 1019.9 hPa WSW 0.8 km/h 5.6 km/h 83 % 0 mm
07:49 2.6 °C -0.2 °C 1019.9 hPa WSW 0.8 km/h 3.7 km/h 82 % 0 mm
07:54 2.8 °C -0.3 °C 1020.2 hPa West 5.3 km/h 8 km/h 80 % 0 mm
07:59 3.1 °C -0.4 °C 1020.2 hPa SSW 8.9 km/h 11.1 km/h 78 % 0 mm
08:04 3.3 °C -0.3 °C 1020.2 hPa West 4 km/h 5.6 km/h 77 % 0 mm
08:09 3.7 °C -0.2 °C 1020.2 hPa WSW 5.6 km/h 9.3 km/h 76 % 0 mm
08:14 4 °C -0.4 °C 1020.5 hPa WSW 1.3 km/h 4.8 km/h 73 % 0 mm
08:19 4.3 °C -0.1 °C 1020.5 hPa WSW 5 km/h 7.4 km/h 73 % 0 mm
08:24 4.7 °C 0.1 °C 1020.5 hPa West 6 km/h 9.3 km/h 72 % 0 mm
08:29 5 °C 0.2 °C 1020.2 hPa WSW 3.1 km/h 5.6 km/h 71 % 0 mm
08:34 5.3 °C 0.1 °C 1020.2 hPa SW 1.3 km/h 6.4 km/h 69 % 0 mm
08:39 5.6 °C -0.3 °C 1020.2 hPa WSW 1.3 km/h 5.6 km/h 66 % 0 mm
08:44 5.8 °C -0.3 °C 1020.2 hPa West 6.4 km/h 9.3 km/h 65 % 0 mm
08:49 6 °C -0.3 °C 1020.2 hPa WSW 7.9 km/h 11.1 km/h 64 % 0 mm
08:54 6.2 °C -0.5 °C 1020.5 hPa WSW 5.1 km/h 7.4 km/h 62 % 0 mm
09:00 6.3 °C -0.7 °C 1020.5 hPa West 1.8 km/h 5.6 km/h 61 % 0 mm
09:05 6.4 °C -0.6 °C 1020.5 hPa SW 0.2 km/h 1.9 km/h 61 % 0 mm
09:10 6.7 °C -0.3 °C 1020.5 hPa West 2.3 km/h 5.6 km/h 61 % 0 mm
09:15 6.9 °C -0.8 °C 1020.5 hPa WNW 2.6 km/h 8 km/h 58 % 0 mm
09:20 7.1 °C -1.1 °C 1020.5 hPa West 4.2 km/h 7.4 km/h 56 % 0 mm
09:25 7.3 °C -0.9 °C 1020.5 hPa West 1.3 km/h 3.7 km/h 56 % 0 mm
09:30 7.7 °C -0.8 °C 1020.5 hPa West 1.9 km/h 5.6 km/h 55 % 0 mm
09:35 8 °C -1.3 °C 1020.5 hPa West 2.6 km/h 5.6 km/h 52 % 0 mm
09:40 8.1 °C -1.7 °C 1020.5 hPa WSW 3.5 km/h 7.4 km/h 50 % 0 mm
09:45 8.4 °C -0.9 °C 1020.5 hPa NW 2.9 km/h 6.4 km/h 52 % 0 mm
09:50 8.5 °C -1.6 °C 1020.5 hPa WNW 3.2 km/h 5.6 km/h 49 % 0 mm
09:55 8.7 °C -1.2 °C 1020.5 hPa NW 2.4 km/h 5.6 km/h 50 % 0 mm
10:00 8.9 °C -1.5 °C 1020.5 hPa West 1.9 km/h 5.6 km/h 48 % 0 mm
10:05 9.1 °C -1.7 °C 1020.5 hPa WNW 2.6 km/h 6.4 km/h 47 % 0 mm
10:10 9.2 °C -1.8 °C 1020.5 hPa WNW 3.2 km/h 7.4 km/h 46 % 0 mm
10:15 9.4 °C -1.3 °C 1020.5 hPa NW 0.8 km/h 3.2 km/h 47 % 0 mm
10:20 9.7 °C -1.1 °C 1020.5 hPa NNW 2.3 km/h 4.8 km/h 47 % 0 mm
10:25 9.9 °C -0.8 °C 1020.2 hPa NW 4.8 km/h 7.4 km/h 47 % 0 mm
10:30 10.2 °C -1.3 °C 1020.2 hPa Calm   5.6 km/h 45 % 0 mm
10:35 10.4 °C -1.9 °C 1020.2 hPa WNW 5.6 km/h 5.6 km/h 42 % 0 mm
10:40 10.7 °C -0.4 °C 1020.2 hPa NNW 1.4 km/h 5.6 km/h 46 % 0 mm
10:45 10.9 °C -1.8 °C 1020.2 hPa WNW 6.6 km/h 8 km/h 41 % 0 mm
10:50 11.2 °C -0.6 °C 1020.2 hPa WNW 1.1 km/h 7.4 km/h 44 % 0 mm
10:55 11.3 °C -1.1 °C 1020.2 hPa WSW 1.3 km/h 5.6 km/h 42 % 0 mm
11:01 11.4 °C -3.1 °C 1020.2 hPa WNW 4.7 km/h 8 km/h 36 % 0 mm
11:06 11.4 °C -2.8 °C 1020.2 hPa West 2.1 km/h 7.4 km/h 37 % 0 mm
11:11 11.6 °C -2.2 °C 1020.2 hPa SW 6 km/h 7.4 km/h 38 % 0 mm
11:16 11.7 °C -1.8 °C 1020.2 hPa WSW 2.7 km/h 9.3 km/h 39 % 0 mm
11:21 11.9 °C -2.7 °C 1020.2 hPa NW 5.1 km/h 7.4 km/h 36 % 0 mm
11:26 11.9 °C -3.4 °C 1020.2 hPa West 2.3 km/h 5.6 km/h 34 % 0 mm
11:31 12.1 °C -2.6 °C 1020.2 hPa WSW 7.2 km/h 9.7 km/h 36 % 0 mm
11:36 12.2 °C -3.2 °C 1020.2 hPa South 8.4 km/h 11.1 km/h 34 % 0 mm
11:41 12.4 °C -2.3 °C 1020.2 hPa WNW 2.9 km/h 11.1 km/h 36 % 0 mm
11:46 12.5 °C -1.4 °C 1020.2 hPa West 0.2 km/h 7.4 km/h 38 % 0 mm
11:51 12.6 °C -1.7 °C 1019.9 hPa WSW 10.8 km/h 16.1 km/h 37 % 0 mm
11:56 12.5 °C -3.3 °C 1019.9 hPa WSW 5.8 km/h 14.5 km/h 33 % 0 mm
12:01 12.3 °C -3.1 °C 1019.9 hPa SW 6 km/h 11.3 km/h 34 % 0 mm
12:06 12.4 °C -2.7 °C 1019.5 hPa NW 4.7 km/h 9.3 km/h 35 % 0 mm
12:11 12.4 °C -2.6 °C 1019.5 hPa WSW 4.2 km/h 6.4 km/h 35 % 0 mm
12:16 12.5 °C -2.9 °C 1019.5 hPa SW 8.5 km/h 11.1 km/h 34 % 0 mm
12:21 12.4 °C -3.4 °C 1019.5 hPa SW 9.7 km/h 14.8 km/h 33 % 0 mm
12:26 12.3 °C -3.6 °C 1019.2 hPa WSW 7.4 km/h 11.1 km/h 33 % 0 mm
12:32 12.4 °C -3.4 °C 1019.2 hPa SW 5.8 km/h 13 km/h 33 % 0 mm
12:37 12.5 °C -2.9 °C 1018.8 hPa WSW 6 km/h 14.8 km/h 34 % 0 mm
12:42 12.6 °C -1.7 °C 1018.8 hPa SSW 6.1 km/h 11.1 km/h 37 % 0 mm
12:47 12.8 °C -1.9 °C 1018.8 hPa SW 5.3 km/h 14.8 km/h 36 % 0 mm
12:52 12.9 °C -2.2 °C 1018.8 hPa SW 3.5 km/h 11.3 km/h 35 % 0 mm
12:57 13 °C -1.7 °C 1018.5 hPa WNW 5 km/h 7.4 km/h 36 % 0 mm
13:02 13.2 °C -0.2 °C 1018.5 hPa WSW 2.3 km/h 11.3 km/h 40 % 0 mm
13:07 13.3 °C -1.1 °C 1018.5 hPa West 2.1 km/h 5.6 km/h 37 % 0 mm
13:12 13.3 °C -1.1 °C 1018.5 hPa SW 7.4 km/h 11.1 km/h 37 % 0 mm
13:17 13.4 °C -1 °C 1018.5 hPa West 9.3 km/h 11.3 km/h 37 % 0 mm
13:22 13.5 °C -0.2 °C 1018.2 hPa SSW 4.2 km/h 11.3 km/h 39 % 0 mm
13:27 13.6 °C -0.9 °C 1018.2 hPa WNW 4.5 km/h 6.4 km/h 37 % 0 mm
13:32 13.6 °C -0.8 °C 1018.2 hPa WSW 10.1 km/h 14.5 km/h 37 % 0 mm
13:37 13.6 °C -0.8 °C 1017.8 hPa SSW 1.9 km/h 5.6 km/h 37 % 0 mm
13:42 13.7 °C -1.2 °C 1017.8 hPa West 4.2 km/h 7.4 km/h 36 % 0 mm
13:47 13.7 °C -1.2 °C 1017.8 hPa West 3.1 km/h 9.3 km/h 36 % 0 mm
13:52 13.7 °C -1.2 °C 1017.8 hPa SSW 2.4 km/h 6.4 km/h 36 % 0 mm
13:57 13.7 °C -0.8 °C 1017.8 hPa SW 0.6 km/h 5.6 km/h 37 % 0 mm
14:02 13.8 °C -0.7 °C 1017.5 hPa WSW 10.9 km/h 14.8 km/h 37 % 0 mm
14:07 13.7 °C -1.1 °C 1017.5 hPa WSW 9.2 km/h 11.3 km/h 36 % 0 mm
14:12 13.7 °C -0.7 °C 1017.5 hPa WNW 8.5 km/h 12.9 km/h 37 % 0 mm
14:17 13.7 °C -1.2 °C 1017.5 hPa West 7.2 km/h 13 km/h 36 % 0 mm
14:22 13.7 °C -0.8 °C 1017.2 hPa West 6.8 km/h 14.8 km/h 37 % 0 mm
14:27 13.6 °C -1.2 °C 1017.2 hPa SW 7.7 km/h 9.3 km/h 36 % 0 mm
14:33 13.4 °C -1.3 °C 1017.2 hPa WSW 11.9 km/h 18.5 km/h 36 % 0 mm
14:38 13.3 °C -1.1 °C 1017.2 hPa SW 5.5 km/h 14.8 km/h 37 % 0 mm
14:43 13.3 °C -1.1 °C 1016.8 hPa SW 9.5 km/h 14.8 km/h 37 % 0 mm
14:48 13.3 °C -1.1 °C 1016.8 hPa NW 6.3 km/h 11.1 km/h 37 % 0 mm
14:53 13.2 °C -1.2 °C 1016.8 hPa WSW 8.9 km/h 13 km/h 37 % 0 mm
14:58 13.1 °C -1.7 °C 1016.5 hPa SSW 6.4 km/h 14.8 km/h 36 % 0 mm
15:03 13 °C -1.4 °C 1016.5 hPa WNW 5.3 km/h 6.4 km/h 37 % 0 mm
15:08 12.9 °C -1.4 °C 1016.5 hPa SW 4.8 km/h 8 km/h 37 % 0 mm
15:13 12.8 °C -1.6 °C 1016.5 hPa West 3.1 km/h 13 km/h 37 % 0 mm
15:18 12.7 °C -1.7 °C 1016.5 hPa West 4.2 km/h 5.6 km/h 37 % 0 mm
15:23 12.6 °C -1.3 °C 1016.5 hPa SW 4.7 km/h 13 km/h 38 % 0 mm
15:28 12.6 °C -1.4 °C 1016.5 hPa SW 5.8 km/h 9.3 km/h 38 % 0 mm
15:33 12.4 °C -1.5 °C 1016.5 hPa SW 1.8 km/h 7.4 km/h 38 % 0 mm
15:38 12.4 °C -1.6 °C 1016.5 hPa SW 9.5 km/h 13 km/h 38 % 0 mm
15:43 12.3 °C -1.7 °C 1016.1 hPa WSW 9.2 km/h 13 km/h 38 % 0 mm
15:49 12.2 °C -1.7 °C 1016.1 hPa West 5.5 km/h 11.1 km/h 38 % 0 mm
15:54 12.2 °C -1.8 °C 1016.1 hPa West 9.7 km/h 16.7 km/h 38 % 0 mm
15:59 12.2 °C -1.8 °C 1015.8 hPa West 0.3 km/h 3.2 km/h 38 % 0 mm
16:04 12.1 °C -1.4 °C 1016.1 hPa WSW 1.6 km/h 11.1 km/h 39 % 0 mm
16:09 12.1 °C -1.8 °C 1015.8 hPa SSW 2.6 km/h 7.4 km/h 38 % 0 mm
16:14 12.1 °C -1.8 °C 1015.8 hPa WSW 5 km/h 7.4 km/h 38 % 0 mm
16:19 12 °C -1.6 °C 1015.8 hPa West 1.9 km/h 5.6 km/h 39 % 0 mm
16:24 11.9 °C -1.6 °C 1015.5 hPa West 6.6 km/h 9.3 km/h 39 % 0 mm
16:29 11.9 °C -1.3 °C 1015.5 hPa WSW 6.3 km/h 9.3 km/h 40 % 0 mm
16:34 11.8 °C -1.3 °C 1015.5 hPa WSW 2.9 km/h 5.6 km/h 40 % 0 mm
16:39 11.8 °C -1.7 °C 1015.5 hPa SW 4.5 km/h 6.4 km/h 39 % 0 mm
16:44 11.7 °C -1.8 °C 1015.5 hPa WSW 5 km/h 5.6 km/h 39 % 0 mm
16:49 11.7 °C -1.4 °C 1015.5 hPa SSW 5 km/h 7.4 km/h 40 % 0 mm
16:54 11.7 °C -0.8 °C 1015.5 hPa South 1.8 km/h 5.6 km/h 42 % 0 mm
17:00 11.6 °C -0.9 °C 1015.5 hPa South 3.7 km/h 11.1 km/h 42 % 0 mm
17:05 11.4 °C -0.4 °C 1015.8 hPa SSW 4.7 km/h 9.3 km/h 44 % 0 mm
17:10 11.3 °C -0.6 °C 1015.8 hPa SSW 3.1 km/h 11.3 km/h 44 % 0 mm
17:15 11.1 °C -0.7 °C 1015.5 hPa South 3.2 km/h 11.1 km/h 44 % 0 mm
17:20 10.9 °C -0.6 °C 1015.5 hPa South 6.1 km/h 9.7 km/h 45 % 0 mm
17:25 10.7 °C -0.7 °C 1015.8 hPa SSW 5.5 km/h 8 km/h 45 % 0 mm
17:30 10.6 °C -0.9 °C 1015.8 hPa SSW 5.3 km/h 11.1 km/h 45 % 0 mm
17:35 10.4 °C -0.7 °C 1015.8 hPa SSW 6 km/h 9.3 km/h 46 % 0 mm
17:40 10.2 °C -0.9 °C 1015.8 hPa South 7.6 km/h 13 km/h 46 % 0 mm
17:45 10 °C -1.1 °C 1015.8 hPa SSW 7.6 km/h 13 km/h 46 % 0 mm
17:50 9.7 °C -1.3 °C 1015.8 hPa South 3.2 km/h 13 km/h 46 % 0 mm
17:55 9.4 °C -1.6 °C 1015.8 hPa South 9.7 km/h 12.9 km/h 46 % 0 mm
18:00 9.2 °C -1.6 °C 1015.8 hPa SSW 6.4 km/h 9.3 km/h 47 % 0 mm
18:05 8.9 °C -1.6 °C 1015.8 hPa SSW 4.8 km/h 5.6 km/h 48 % 0 mm
18:10 8.7 °C -1.7 °C 1015.8 hPa South 6.8 km/h 11.1 km/h 48 % 0 mm
18:15 8.4 °C -1.7 °C 1015.8 hPa South 5.8 km/h 11.1 km/h 49 % 0 mm
18:21 8.3 °C -1.8 °C 1015.8 hPa South 8 km/h 12.9 km/h 49 % 0 mm
18:26 8.1 °C -1.7 °C 1015.5 hPa South 8 km/h 16.1 km/h 50 % 0 mm
18:31 7.9 °C -1.9 °C 1015.5 hPa South 8 km/h 19.3 km/h 50 % 0 mm
18:36 7.7 °C -1.8 °C 1015.8 hPa South 8 km/h 20.9 km/h 51 % 0 mm
18:41 7.6 °C -1.7 °C 1015.8 hPa South 8 km/h 14.5 km/h 52 % 0 mm
18:46 7.4 °C -1.8 °C 1015.8 hPa South 8 km/h 24.1 km/h 52 % 0 mm
18:51 7.3 °C -1.6 °C 1015.5 hPa SSW 11.3 km/h 16.1 km/h 53 % 0 mm
18:56 7.2 °C -1.5 °C 1015.5 hPa SSW 11.3 km/h 20.9 km/h 54 % 0 mm
19:01 7.1 °C -1.6 °C 1015.5 hPa South 9 km/h 16.7 km/h 54 % 0 mm
19:06 6.9 °C -1.7 °C 1015.5 hPa South 8.7 km/h 18.5 km/h 54 % 0 mm
19:11 6.8 °C -1.8 °C 1015.5 hPa SW 14.2 km/h 22.2 km/h 54 % 0 mm
19:16 6.8 °C -1.7 °C 1015.5 hPa SSE 8.2 km/h 11.3 km/h 55 % 0 mm
19:21 6.7 °C -1.7 °C 1015.8 hPa SSW 12.2 km/h 18.5 km/h 55 % 0 mm
19:26 6.6 °C -1.8 °C 1015.5 hPa SSW 8.7 km/h 14.8 km/h 55 % 0 mm
19:31 6.6 °C -1.8 °C 1015.5 hPa South 10 km/h 17.7 km/h 55 % 0 mm
19:36 6.5 °C -1.9 °C 1015.5 hPa South 14.5 km/h 22.2 km/h 55 % 0 mm
19:41 6.4 °C -1.9 °C 1015.5 hPa SSW 10.9 km/h 20.4 km/h 55 % 0 mm
19:46 6.4 °C -1.9 °C 1015.5 hPa SSW 10.3 km/h 13 km/h 55 % 0 mm
19:51 6.4 °C -1.7 °C 1015.5 hPa South 9.2 km/h 13 km/h 56 % 0 mm
19:56 6.4 °C -1.7 °C 1015.5 hPa South 10.6 km/h 18.5 km/h 56 % 0 mm
20:01 6.4 °C -1.8 °C 1015.5 hPa South 7.4 km/h 18.5 km/h 56 % 0 mm
20:06 6.3 °C -1.6 °C 1015.5 hPa SSW 5.3 km/h 11.3 km/h 57 % 0 mm
20:11 6.3 °C -1.6 °C 1015.5 hPa South 5 km/h 13 km/h 57 % 0 mm
20:16 6.3 °C -1.4 °C 1015.5 hPa SSW 7.2 km/h 11.1 km/h 58 % 0 mm
20:22 6.2 °C -1.4 °C 1015.5 hPa South 7.9 km/h 14.8 km/h 58 % 0 mm
20:27 6.2 °C -1.3 °C 1015.5 hPa SSW 4.5 km/h 13 km/h 59 % 0 mm
20:32 6.2 °C -1.3 °C 1015.5 hPa South 6.6 km/h 9.7 km/h 59 % 0 mm
20:37 6.1 °C -1.1 °C 1015.5 hPa SSW 10.3 km/h 16.7 km/h 60 % 0 mm
20:42 6.1 °C -1.1 °C 1015.5 hPa SSW 5.8 km/h 9.3 km/h 60 % 0 mm
20:47 6.1 °C -0.9 °C 1015.5 hPa SSW 7.4 km/h 11.1 km/h 61 % 0 mm
20:52 6.1 °C -0.8 °C 1015.5 hPa SSW 5 km/h 11.1 km/h 61 % 0 mm
20:57 6.1 °C -0.9 °C 1015.5 hPa South 7.1 km/h 13 km/h 61 % 0 mm
21:02 6.1 °C -0.7 °C 1015.5 hPa South 5.6 km/h 9.3 km/h 62 % 0 mm
21:07 6 °C -0.7 °C 1015.1 hPa SSE 9.3 km/h 16.7 km/h 62 % 0 mm
21:08 6.1 °C -0.7 °C 1015.1 hPa South 4.7 km/h 9.7 km/h 62 % 0 mm
21:13 6 °C -0.7 °C 1015.1 hPa SSW 8.9 km/h 14.8 km/h 62 % 0 mm
21:18 5.9 °C -0.6 °C 1015.1 hPa SSW 6 km/h 14.8 km/h 63 % 0 mm
21:23 5.9 °C -0.6 °C 1015.1 hPa SSW 7.9 km/h 11.1 km/h 63 % 0 mm
21:28 5.9 °C -0.4 °C 1014.8 hPa SW 5.5 km/h 16.1 km/h 64 % 0 mm
21:33 5.9 °C -0.4 °C 1014.8 hPa South 5.8 km/h 9.3 km/h 64 % 0 mm
21:39 5.8 °C -0.4 °C 1014.8 hPa South 7.2 km/h 14.8 km/h 64 % 0 mm
21:44 5.8 °C -0.2 °C 1014.8 hPa SSW 6.1 km/h 11.1 km/h 65 % 0 mm
21:49 5.8 °C -0.2 °C 1014.8 hPa South 4.3 km/h 11.1 km/h 65 % 0 mm
21:54 5.8 °C -0.3 °C 1014.4 hPa SSW 8.4 km/h 13 km/h 65 % 0 mm
21:59 5.8 °C -0.1 °C 1014.4 hPa SSW 3.7 km/h 9.7 km/h 66 % 0 mm
22:04 5.7 °C -0.2 °C 1014.4 hPa South 9.3 km/h 13 km/h 66 % 0 mm
22:09 5.7 °C -0.2 °C 1014.4 hPa SSW 2.9 km/h 9.3 km/h 66 % 0 mm
22:14 5.7 °C -0.2 °C 1014.1 hPa SSE 4.8 km/h 11.1 km/h 66 % 0 mm
22:19 5.6 °C -0.1 °C 1014.1 hPa SW 6.1 km/h 7.4 km/h 67 % 0 mm
22:24 5.6 °C -0.1 °C 1014.1 hPa SSW 7.6 km/h 13 km/h 67 % 0 mm
22:29 5.6 °C -0.1 °C 1014.1 hPa SSW 7.9 km/h 9.7 km/h 67 % 0 mm
22:34 5.6 °C -0.1 °C 1014.1 hPa South 7.9 km/h 14.8 km/h 67 % 0 mm
22:39 5.6 °C 0.1 °C 1014.1 hPa SSW 9.3 km/h 11.3 km/h 68 % 0 mm
22:44 5.6 °C 0.1 °C 1014.1 hPa South 6.6 km/h 11.1 km/h 68 % 0 mm
22:49 5.5 °C 0.1 °C 1014.1 hPa SSW 6.8 km/h 11.3 km/h 68 % 0 mm
22:54 5.6 °C 0.1 °C 1013.8 hPa South 7.6 km/h 12.9 km/h 68 % 0 mm
22:59 5.6 °C 0.1 °C 1014.1 hPa South 9 km/h 11.1 km/h 68 % 0 mm
23:04 5.6 °C -0.1 °C 1013.8 hPa WSW 4.2 km/h 16.7 km/h 67 % 0 mm
23:10 5.6 °C -0.1 °C 1014.1 hPa South 3.5 km/h 9.3 km/h 67 % 0 mm
23:15 5.6 °C -0.1 °C 1013.8 hPa SW 2.4 km/h 5.6 km/h 67 % 0 mm
23:20 5.5 °C -0.2 °C 1014.1 hPa SW 6.6 km/h 9.3 km/h 67 % 0 mm
23:25 5.5 °C -0.2 °C 1013.8 hPa SSW 9.2 km/h 11.1 km/h 67 % 0 mm
23:30 5.5 °C -0.2 °C 1013.8 hPa SSW 4.8 km/h 11.1 km/h 67 % 0 mm
23:35 5.5 °C -0.2 °C 1014.1 hPa SSW 5.1 km/h 11.1 km/h 67 % 0 mm
23:40 5.5 °C -0.2 °C 1013.8 hPa SSW 1.3 km/h 9.7 km/h 67 % 0 mm
23:45 5.5 °C -0.2 °C 1013.8 hPa SSW 6.9 km/h 13 km/h 67 % 0 mm
23:50 5.6 °C -0.1 °C 1013.8 hPa South 6.3 km/h 14.5 km/h 67 % 0 mm
23:55 5.6 °C -0.1 °C 1013.8 hPa SSW 5.8 km/h 9.3 km/h 67 % 0 mm
Crab Meadow Weather
Compliments of Weather Underground - 3 mb

Script developed by  Jim McMurry - jmcmurry@mwt.net Adapted for the template by  Wim van der Kuil - Leuven-Template.eu

Weather Terms: Severe Local Storms - These are short-fused, small scale hazardous weather or hydrologic events produced by thunderstorms, including large hail, damaging winds, tornadoes, and flash floods.